sensor_id;sensor_type;location;lat;lon;timestamp;P1;durP1;ratioP1;P2;durP2;ratioP2
14139;SDS011;7150;53.514;9.988;2023-02-28T00:00:07;2.83;;;1.73;;
14139;SDS011;7150;53.514;9.988;2023-02-28T00:02:37;3.27;;;1.93;;
14139;SDS011;7150;53.514;9.988;2023-02-28T00:05:03;2.83;;;1.70;;
14139;SDS011;7150;53.514;9.988;2023-02-28T00:07:30;5.27;;;2.13;;
14139;SDS011;7150;53.514;9.988;2023-02-28T00:09:56;4.77;;;2.20;;
14139;SDS011;7150;53.514;9.988;2023-02-28T00:12:22;4.60;;;1.93;;
14139;SDS011;7150;53.514;9.988;2023-02-28T00:14:48;4.33;;;2.30;;
14139;SDS011;7150;53.514;9.988;2023-02-28T00:17:14;4.77;;;1.90;;
14139;SDS011;7150;53.514;9.988;2023-02-28T00:19:39;4.10;;;1.63;;
14139;SDS011;7150;53.514;9.988;2023-02-28T00:22:05;2.80;;;1.93;;
14139;SDS011;7150;53.514;9.988;2023-02-28T00:24:30;4.93;;;2.17;;
14139;SDS011;7150;53.514;9.988;2023-02-28T00:26:56;3.63;;;1.90;;
14139;SDS011;7150;53.514;9.988;2023-02-28T00:29:21;4.70;;;2.20;;
14139;SDS011;7150;53.514;9.988;2023-02-28T00:31:47;5.57;;;2.37;;
14139;SDS011;7150;53.514;9.988;2023-02-28T00:34:12;5.53;;;2.10;;
14139;SDS011;7150;53.514;9.988;2023-02-28T00:36:38;3.40;;;2.00;;
14139;SDS011;7150;53.514;9.988;2023-02-28T00:39:03;3.93;;;2.23;;
14139;SDS011;7150;53.514;9.988;2023-02-28T00:41:29;5.30;;;2.07;;
14139;SDS011;7150;53.514;9.988;2023-02-28T00:43:54;7.50;;;2.20;;
14139;SDS011;7150;53.514;9.988;2023-02-28T00:46:20;3.53;;;1.87;;
14139;SDS011;7150;53.514;9.988;2023-02-28T00:48:45;3.90;;;1.80;;
14139;SDS011;7150;53.514;9.988;2023-02-28T00:51:11;3.03;;;1.80;;
14139;SDS011;7150;53.514;9.988;2023-02-28T00:53:36;3.97;;;1.93;;
14139;SDS011;7150;53.514;9.988;2023-02-28T00:56:02;2.67;;;1.90;;
14139;SDS011;7150;53.514;9.988;2023-02-28T00:58:28;5.30;;;2.30;;
14139;SDS011;7150;53.514;9.988;2023-02-28T01:00:53;4.57;;;2.07;;
14139;SDS011;7150;53.514;9.988;2023-02-28T01:03:19;5.60;;;2.30;;
14139;SDS011;7150;53.514;9.988;2023-02-28T01:05:45;4.50;;;2.40;;
14139;SDS011;7150;53.514;9.988;2023-02-28T01:08:11;4.50;;;1.90;;
14139;SDS011;7150;53.514;9.988;2023-02-28T01:10:38;3.50;;;1.93;;
14139;SDS011;7150;53.514;9.988;2023-02-28T01:13:04;4.13;;;2.07;;
14139;SDS011;7150;53.514;9.988;2023-02-28T01:15:29;4.57;;;2.00;;
14139;SDS011;7150;53.514;9.988;2023-02-28T01:17:56;6.10;;;2.43;;
14139;SDS011;7150;53.514;9.988;2023-02-28T01:20:22;5.30;;;2.40;;
14139;SDS011;7150;53.514;9.988;2023-02-28T01:22:48;4.03;;;2.10;;
14139;SDS011;7150;53.514;9.988;2023-02-28T01:25:13;4.27;;;2.37;;
14139;SDS011;7150;53.514;9.988;2023-02-28T01:27:39;3.43;;;2.00;;
14139;SDS011;7150;53.514;9.988;2023-02-28T01:30:05;4.83;;;2.60;;
14139;SDS011;7150;53.514;9.988;2023-02-28T01:32:34;8.77;;;2.80;;
14139;SDS011;7150;53.514;9.988;2023-02-28T01:35:00;5.53;;;2.43;;
14139;SDS011;7150;53.514;9.988;2023-02-28T01:37:26;5.63;;;2.87;;
14139;SDS011;7150;53.514;9.988;2023-02-28T01:39:52;4.83;;;2.80;;
14139;SDS011;7150;53.514;9.988;2023-02-28T01:42:18;5.03;;;2.40;;
14139;SDS011;7150;53.514;9.988;2023-02-28T01:45:04;4.87;;;2.70;;
14139;SDS011;7150;53.514;9.988;2023-02-28T01:48:04;4.70;;;2.37;;
14139;SDS011;7150;53.514;9.988;2023-02-28T01:50:34;4.80;;;2.57;;
14139;SDS011;7150;53.514;9.988;2023-02-28T01:53:06;5.40;;;2.80;;
14139;SDS011;7150;53.514;9.988;2023-02-28T01:55:34;4.50;;;2.50;;
14139;SDS011;7150;53.514;9.988;2023-02-28T01:58:01;9.57;;;3.27;;
14139;SDS011;7150;53.514;9.988;2023-02-28T02:00:29;7.10;;;2.80;;
14139;SDS011;7150;53.514;9.988;2023-02-28T02:02:57;5.73;;;2.90;;
14139;SDS011;7150;53.514;9.988;2023-02-28T02:05:26;6.27;;;2.57;;
14139;SDS011;7150;53.514;9.988;2023-02-28T02:07:56;5.63;;;2.90;;
14139;SDS011;7150;53.514;9.988;2023-02-28T02:10:31;5.23;;;2.90;;
14139;SDS011;7150;53.514;9.988;2023-02-28T02:16:14;4.70;;;3.00;;
14139;SDS011;7150;53.514;9.988;2023-02-28T02:30:43;5.47;;;2.90;;
14139;SDS011;7150;53.514;9.988;2023-02-28T02:38:44;6.57;;;3.33;;
14139;SDS011;7150;53.514;9.988;2023-02-28T02:41:51;7.87;;;3.67;;
14139;SDS011;7150;53.514;9.988;2023-02-28T02:44:30;6.07;;;3.30;;
14139;SDS011;7150;53.514;9.988;2023-02-28T02:47:12;4.33;;;2.93;;
14139;SDS011;7150;53.514;9.988;2023-02-28T02:49:42;6.43;;;3.17;;
14139;SDS011;7150;53.514;9.988;2023-02-28T02:52:13;5.07;;;3.10;;
14139;SDS011;7150;53.514;9.988;2023-02-28T02:54:43;5.27;;;3.07;;
14139;SDS011;7150;53.514;9.988;2023-02-28T02:57:13;7.00;;;3.67;;
14139;SDS011;7150;53.514;9.988;2023-02-28T02:59:44;7.07;;;3.00;;
14139;SDS011;7150;53.514;9.988;2023-02-28T03:02:11;6.70;;;3.03;;
14139;SDS011;7150;53.514;9.988;2023-02-28T03:04:43;6.17;;;3.37;;
14139;SDS011;7150;53.514;9.988;2023-02-28T03:07:16;5.07;;;3.00;;
14139;SDS011;7150;53.514;9.988;2023-02-28T03:09:49;4.43;;;2.83;;
14139;SDS011;7150;53.514;9.988;2023-02-28T03:12:16;4.97;;;3.40;;
14139;SDS011;7150;53.514;9.988;2023-02-28T03:20:16;4.80;;;2.97;;
14139;SDS011;7150;53.514;9.988;2023-02-28T03:25:42;4.70;;;2.73;;
14139;SDS011;7150;53.514;9.988;2023-02-28T03:28:18;6.17;;;3.07;;
14139;SDS011;7150;53.514;9.988;2023-02-28T03:30:49;5.77;;;3.37;;
14139;SDS011;7150;53.514;9.988;2023-02-28T03:33:21;4.40;;;2.97;;
14139;SDS011;7150;53.514;9.988;2023-02-28T03:35:55;5.73;;;2.70;;
14139;SDS011;7150;53.514;9.988;2023-02-28T03:41:41;5.20;;;3.20;;
14139;SDS011;7150;53.514;9.988;2023-02-28T03:43:53;4.93;;;3.07;;
14139;SDS011;7150;53.514;9.988;2023-02-28T03:46:23;5.03;;;3.03;;
14139;SDS011;7150;53.514;9.988;2023-02-28T03:48:57;4.37;;;3.20;;
14139;SDS011;7150;53.514;9.988;2023-02-28T03:51:32;5.40;;;2.90;;
14139;SDS011;7150;53.514;9.988;2023-02-28T03:54:02;5.93;;;3.10;;
14139;SDS011;7150;53.514;9.988;2023-02-28T03:56:37;5.40;;;2.80;;
14139;SDS011;7150;53.514;9.988;2023-02-28T03:59:15;4.77;;;2.93;;
14139;SDS011;7150;53.514;9.988;2023-02-28T04:01:49;7.33;;;3.40;;
14139;SDS011;7150;53.514;9.988;2023-02-28T04:04:16;5.57;;;3.30;;
14139;SDS011;7150;53.514;9.988;2023-02-28T04:06:42;5.53;;;3.07;;
14139;SDS011;7150;53.514;9.988;2023-02-28T04:09:10;6.87;;;3.87;;
14139;SDS011;7150;53.514;9.988;2023-02-28T04:11:38;6.57;;;3.60;;
14139;SDS011;7150;53.514;9.988;2023-02-28T04:14:09;6.97;;;3.37;;
14139;SDS011;7150;53.514;9.988;2023-02-28T04:16:37;6.93;;;3.87;;
14139;SDS011;7150;53.514;9.988;2023-02-28T04:19:05;7.23;;;3.93;;
14139;SDS011;7150;53.514;9.988;2023-02-28T04:21:36;7.90;;;4.10;;
14139;SDS011;7150;53.514;9.988;2023-02-28T04:24:05;8.13;;;4.03;;
14139;SDS011;7150;53.514;9.988;2023-02-28T04:26:33;8.90;;;3.83;;
14139;SDS011;7150;53.514;9.988;2023-02-28T04:29:00;6.07;;;3.37;;
14139;SDS011;7150;53.514;9.988;2023-02-28T04:31:28;6.67;;;3.63;;
14139;SDS011;7150;53.514;9.988;2023-02-28T04:33:53;6.60;;;3.43;;
14139;SDS011;7150;53.514;9.988;2023-02-28T04:36:19;8.97;;;3.73;;
14139;SDS011;7150;53.514;9.988;2023-02-28T04:38:44;7.33;;;4.03;;
14139;SDS011;7150;53.514;9.988;2023-02-28T04:41:11;7.80;;;3.47;;
14139;SDS011;7150;53.514;9.988;2023-02-28T04:43:37;7.03;;;3.60;;
14139;SDS011;7150;53.514;9.988;2023-02-28T04:46:03;6.83;;;3.47;;
14139;SDS011;7150;53.514;9.988;2023-02-28T04:48:31;5.77;;;3.57;;
14139;SDS011;7150;53.514;9.988;2023-02-28T04:51:05;5.57;;;3.10;;
14139;SDS011;7150;53.514;9.988;2023-02-28T04:53:33;6.33;;;3.77;;
14139;SDS011;7150;53.514;9.988;2023-02-28T04:55:59;5.97;;;3.40;;
14139;SDS011;7150;53.514;9.988;2023-02-28T04:58:25;8.27;;;3.73;;
14139;SDS011;7150;53.514;9.988;2023-02-28T05:00:51;6.27;;;3.70;;
14139;SDS011;7150;53.514;9.988;2023-02-28T05:03:17;9.93;;;3.80;;
14139;SDS011;7150;53.514;9.988;2023-02-28T05:05:43;6.47;;;4.43;;
14139;SDS011;7150;53.514;9.988;2023-02-28T05:08:08;6.93;;;4.17;;
14139;SDS011;7150;53.514;9.988;2023-02-28T05:10:34;6.63;;;3.70;;
14139;SDS011;7150;53.514;9.988;2023-02-28T05:13:00;5.10;;;3.70;;
14139;SDS011;7150;53.514;9.988;2023-02-28T05:15:26;8.57;;;4.40;;
14139;SDS011;7150;53.514;9.988;2023-02-28T05:17:51;6.07;;;3.90;;
14139;SDS011;7150;53.514;9.988;2023-02-28T05:20:17;6.27;;;3.47;;
14139;SDS011;7150;53.514;9.988;2023-02-28T05:22:42;5.73;;;4.20;;
14139;SDS011;7150;53.514;9.988;2023-02-28T05:25:12;8.63;;;4.07;;
14139;SDS011;7150;53.514;9.988;2023-02-28T05:27:40;9.23;;;3.60;;
14139;SDS011;7150;53.514;9.988;2023-02-28T05:30:06;8.67;;;4.53;;
14139;SDS011;7150;53.514;9.988;2023-02-28T05:32:35;10.83;;;4.33;;
14139;SDS011;7150;53.514;9.988;2023-02-28T05:35:07;6.73;;;3.60;;
14139;SDS011;7150;53.514;9.988;2023-02-28T05:37:34;7.23;;;3.80;;
14139;SDS011;7150;53.514;9.988;2023-02-28T05:39:59;6.07;;;3.60;;
14139;SDS011;7150;53.514;9.988;2023-02-28T05:42:25;7.93;;;3.80;;
14139;SDS011;7150;53.514;9.988;2023-02-28T05:44:50;5.30;;;3.23;;
14139;SDS011;7150;53.514;9.988;2023-02-28T05:47:16;7.30;;;4.40;;
14139;SDS011;7150;53.514;9.988;2023-02-28T05:49:42;7.40;;;4.53;;
14139;SDS011;7150;53.514;9.988;2023-02-28T05:52:07;7.63;;;3.80;;
14139;SDS011;7150;53.514;9.988;2023-02-28T05:54:33;10.00;;;3.90;;
14139;SDS011;7150;53.514;9.988;2023-02-28T05:56:58;8.10;;;3.97;;
14139;SDS011;7150;53.514;9.988;2023-02-28T05:59:24;8.37;;;4.07;;
14139;SDS011;7150;53.514;9.988;2023-02-28T06:01:50;6.47;;;4.47;;
14139;SDS011;7150;53.514;9.988;2023-02-28T06:04:17;7.67;;;4.50;;
14139;SDS011;7150;53.514;9.988;2023-02-28T06:06:46;8.17;;;4.60;;
14139;SDS011;7150;53.514;9.988;2023-02-28T06:09:12;7.23;;;4.27;;
14139;SDS011;7150;53.514;9.988;2023-02-28T06:11:38;9.33;;;4.27;;
14139;SDS011;7150;53.514;9.988;2023-02-28T06:14:03;10.33;;;4.00;;
14139;SDS011;7150;53.514;9.988;2023-02-28T06:16:30;7.40;;;4.20;;
14139;SDS011;7150;53.514;9.988;2023-02-28T06:18:57;6.40;;;4.60;;
14139;SDS011;7150;53.514;9.988;2023-02-28T06:21:23;9.57;;;4.87;;
14139;SDS011;7150;53.514;9.988;2023-02-28T06:23:49;8.73;;;4.13;;
14139;SDS011;7150;53.514;9.988;2023-02-28T06:26:15;9.07;;;4.30;;
14139;SDS011;7150;53.514;9.988;2023-02-28T06:28:41;8.50;;;4.50;;
14139;SDS011;7150;53.514;9.988;2023-02-28T06:31:08;8.00;;;5.00;;
14139;SDS011;7150;53.514;9.988;2023-02-28T06:33:35;8.90;;;4.57;;
14139;SDS011;7150;53.514;9.988;2023-02-28T06:36:01;8.10;;;4.30;;
14139;SDS011;7150;53.514;9.988;2023-02-28T06:38:27;7.57;;;4.40;;
14139;SDS011;7150;53.514;9.988;2023-02-28T06:40:56;7.77;;;5.20;;
14139;SDS011;7150;53.514;9.988;2023-02-28T06:43:23;7.27;;;4.43;;
14139;SDS011;7150;53.514;9.988;2023-02-28T06:45:50;8.73;;;4.63;;
14139;SDS011;7150;53.514;9.988;2023-02-28T06:48:18;10.67;;;4.87;;
14139;SDS011;7150;53.514;9.988;2023-02-28T06:50:44;9.07;;;5.03;;
14139;SDS011;7150;53.514;9.988;2023-02-28T06:53:09;7.80;;;5.10;;
14139;SDS011;7150;53.514;9.988;2023-02-28T06:55:37;7.27;;;4.70;;
14139;SDS011;7150;53.514;9.988;2023-02-28T06:58:03;9.50;;;4.47;;
14139;SDS011;7150;53.514;9.988;2023-02-28T07:00:28;5.40;;;4.03;;
14139;SDS011;7150;53.514;9.988;2023-02-28T07:02:54;7.83;;;4.60;;
14139;SDS011;7150;53.514;9.988;2023-02-28T07:05:20;6.23;;;4.00;;
14139;SDS011;7150;53.514;9.988;2023-02-28T07:07:45;7.37;;;4.33;;
14139;SDS011;7150;53.514;9.988;2023-02-28T07:10:12;10.23;;;4.57;;
14139;SDS011;7150;53.514;9.988;2023-02-28T07:12:39;8.00;;;4.40;;
14139;SDS011;7150;53.514;9.988;2023-02-28T07:15:05;7.80;;;4.53;;
14139;SDS011;7150;53.514;9.988;2023-02-28T07:17:31;7.10;;;4.50;;
14139;SDS011;7150;53.514;9.988;2023-02-28T07:19:56;7.50;;;4.50;;
14139;SDS011;7150;53.514;9.988;2023-02-28T07:22:22;8.33;;;4.53;;
14139;SDS011;7150;53.514;9.988;2023-02-28T07:24:47;8.20;;;4.80;;
14139;SDS011;7150;53.514;9.988;2023-02-28T07:27:13;9.17;;;4.47;;
14139;SDS011;7150;53.514;9.988;2023-02-28T07:29:48;7.63;;;4.67;;
14139;SDS011;7150;53.514;9.988;2023-02-28T07:32:17;6.80;;;4.63;;
14139;SDS011;7150;53.514;9.988;2023-02-28T07:34:43;9.80;;;4.37;;
14139;SDS011;7150;53.514;9.988;2023-02-28T07:37:09;6.03;;;4.10;;
14139;SDS011;7150;53.514;9.988;2023-02-28T07:39:35;6.60;;;3.83;;
14139;SDS011;7150;53.514;9.988;2023-02-28T07:42:03;5.43;;;3.47;;
14139;SDS011;7150;53.514;9.988;2023-02-28T07:44:29;8.77;;;4.10;;
14139;SDS011;7150;53.514;9.988;2023-02-28T07:46:55;5.47;;;3.53;;
14139;SDS011;7150;53.514;9.988;2023-02-28T07:49:20;6.47;;;3.67;;
14139;SDS011;7150;53.514;9.988;2023-02-28T07:51:46;7.67;;;3.73;;
14139;SDS011;7150;53.514;9.988;2023-02-28T07:54:12;6.70;;;3.40;;
14139;SDS011;7150;53.514;9.988;2023-02-28T07:56:37;4.90;;;3.17;;
14139;SDS011;7150;53.514;9.988;2023-02-28T07:59:03;6.23;;;3.47;;
14139;SDS011;7150;53.514;9.988;2023-02-28T08:01:28;4.87;;;3.27;;
14139;SDS011;7150;53.514;9.988;2023-02-28T08:03:54;5.37;;;3.20;;
14139;SDS011;7150;53.514;9.988;2023-02-28T08:06:22;3.90;;;2.67;;
14139;SDS011;7150;53.514;9.988;2023-02-28T08:08:49;7.30;;;3.23;;
14139;SDS011;7150;53.514;9.988;2023-02-28T08:11:15;5.53;;;3.13;;
14139;SDS011;7150;53.514;9.988;2023-02-28T08:13:42;4.17;;;2.90;;
14139;SDS011;7150;53.514;9.988;2023-02-28T08:16:08;4.70;;;2.73;;
14139;SDS011;7150;53.514;9.988;2023-02-28T08:18:35;6.00;;;3.10;;
14139;SDS011;7150;53.514;9.988;2023-02-28T08:21:07;3.90;;;2.80;;
14139;SDS011;7150;53.514;9.988;2023-02-28T08:23:33;4.73;;;3.00;;
14139;SDS011;7150;53.514;9.988;2023-02-28T08:26:00;5.70;;;3.17;;
14139;SDS011;7150;53.514;9.988;2023-02-28T08:28:25;5.90;;;3.10;;
14139;SDS011;7150;53.514;9.988;2023-02-28T08:30:50;5.83;;;2.90;;
14139;SDS011;7150;53.514;9.988;2023-02-28T08:33:16;4.80;;;2.70;;
14139;SDS011;7150;53.514;9.988;2023-02-28T08:35:42;3.53;;;2.67;;
14139;SDS011;7150;53.514;9.988;2023-02-28T08:38:07;4.33;;;3.00;;
14139;SDS011;7150;53.514;9.988;2023-02-28T08:40:33;3.73;;;2.70;;
14139;SDS011;7150;53.514;9.988;2023-02-28T08:42:58;7.10;;;3.40;;
14139;SDS011;7150;53.514;9.988;2023-02-28T08:45:24;4.73;;;2.37;;
14139;SDS011;7150;53.514;9.988;2023-02-28T08:47:50;5.60;;;2.60;;
14139;SDS011;7150;53.514;9.988;2023-02-28T08:50:17;4.17;;;2.53;;
14139;SDS011;7150;53.514;9.988;2023-02-28T08:52:43;4.50;;;2.50;;
14139;SDS011;7150;53.514;9.988;2023-02-28T08:55:09;6.83;;;2.40;;
14139;SDS011;7150;53.514;9.988;2023-02-28T08:57:35;5.40;;;2.33;;
14139;SDS011;7150;53.514;9.988;2023-02-28T09:00:00;4.20;;;2.43;;
14139;SDS011;7150;53.514;9.988;2023-02-28T09:02:29;3.07;;;2.00;;
14139;SDS011;7150;53.514;9.988;2023-02-28T09:04:55;5.67;;;2.70;;
14139;SDS011;7150;53.514;9.988;2023-02-28T09:07:20;6.10;;;2.77;;
14139;SDS011;7150;53.514;9.988;2023-02-28T09:09:46;8.60;;;3.47;;
14139;SDS011;7150;53.514;9.988;2023-02-28T09:12:21;7.60;;;3.40;;
14139;SDS011;7150;53.514;9.988;2023-02-28T09:14:48;7.70;;;2.87;;
14139;SDS011;7150;53.514;9.988;2023-02-28T09:17:13;6.50;;;2.60;;
14139;SDS011;7150;53.514;9.988;2023-02-28T09:19:39;4.70;;;2.47;;
14139;SDS011;7150;53.514;9.988;2023-02-28T09:22:04;3.80;;;2.23;;
14139;SDS011;7150;53.514;9.988;2023-02-28T09:24:29;4.07;;;2.07;;
14139;SDS011;7150;53.514;9.988;2023-02-28T09:26:56;4.83;;;2.23;;
14139;SDS011;7150;53.514;9.988;2023-02-28T09:29:22;4.00;;;2.03;;
14139;SDS011;7150;53.514;9.988;2023-02-28T09:31:47;4.03;;;2.00;;
14139;SDS011;7150;53.514;9.988;2023-02-28T09:34:13;5.27;;;2.50;;
14139;SDS011;7150;53.514;9.988;2023-02-28T09:36:38;4.00;;;2.10;;
14139;SDS011;7150;53.514;9.988;2023-02-28T09:39:04;2.53;;;1.37;;
14139;SDS011;7150;53.514;9.988;2023-02-28T09:41:32;5.90;;;1.50;;
14139;SDS011;7150;53.514;9.988;2023-02-28T09:44:05;1.47;;;1.10;;
14139;SDS011;7150;53.514;9.988;2023-02-28T09:46:40;4.27;;;1.83;;
14139;SDS011;7150;53.514;9.988;2023-02-28T09:49:11;2.10;;;1.23;;
14139;SDS011;7150;53.514;9.988;2023-02-28T09:52:00;2.23;;;1.40;;
14139;SDS011;7150;53.514;9.988;2023-02-28T09:54:28;1.20;;;0.93;;
14139;SDS011;7150;53.514;9.988;2023-02-28T09:56:57;4.27;;;1.33;;
14139;SDS011;7150;53.514;9.988;2023-02-28T10:02:16;1.90;;;0.80;;
14139;SDS011;7150;53.514;9.988;2023-02-28T10:05:10;1.30;;;0.80;;
14139;SDS011;7150;53.514;9.988;2023-02-28T10:10:21;2.00;;;0.70;;
14139;SDS011;7150;53.514;9.988;2023-02-28T10:12:59;1.13;;;0.77;;
14139;SDS011;7150;53.514;9.988;2023-02-28T10:15:30;1.50;;;0.93;;
14139;SDS011;7150;53.514;9.988;2023-02-28T10:17:59;1.33;;;1.00;;
14139;SDS011;7150;53.514;9.988;2023-02-28T10:20:28;1.83;;;1.00;;
14139;SDS011;7150;53.514;9.988;2023-02-28T10:25:53;1.47;;;1.07;;
14139;SDS011;7150;53.514;9.988;2023-02-28T10:28:21;3.63;;;1.43;;
14139;SDS011;7150;53.514;9.988;2023-02-28T10:30:50;3.93;;;1.50;;
14139;SDS011;7150;53.514;9.988;2023-02-28T10:33:18;2.17;;;1.20;;
14139;SDS011;7150;53.514;9.988;2023-02-28T10:35:49;2.77;;;1.20;;
14139;SDS011;7150;53.514;9.988;2023-02-28T10:38:24;1.70;;;0.90;;
14139;SDS011;7150;53.514;9.988;2023-02-28T10:40:57;2.13;;;1.30;;
14139;SDS011;7150;53.514;9.988;2023-02-28T10:43:35;4.83;;;1.13;;
14139;SDS011;7150;53.514;9.988;2023-02-28T10:48:36;2.03;;;1.17;;
14139;SDS011;7150;53.514;9.988;2023-02-28T10:51:04;2.93;;;1.20;;
14139;SDS011;7150;53.514;9.988;2023-02-28T10:54:05;4.23;;;1.60;;
14139;SDS011;7150;53.514;9.988;2023-02-28T10:56:24;3.13;;;1.33;;
14139;SDS011;7150;53.514;9.988;2023-02-28T10:59:01;1.80;;;1.37;;
14139;SDS011;7150;53.514;9.988;2023-02-28T11:07:16;2.23;;;1.30;;
14139;SDS011;7150;53.514;9.988;2023-02-28T11:09:50;2.13;;;1.30;;
14139;SDS011;7150;53.514;9.988;2023-02-28T11:12:19;2.10;;;1.40;;
14139;SDS011;7150;53.514;9.988;2023-02-28T11:14:58;5.47;;;1.30;;
14139;SDS011;7150;53.514;9.988;2023-02-28T11:17:28;3.40;;;1.30;;
14139;SDS011;7150;53.514;9.988;2023-02-28T11:20:00;4.07;;;1.20;;
14139;SDS011;7150;53.514;9.988;2023-02-28T11:22:29;1.30;;;1.20;;
14139;SDS011;7150;53.514;9.988;2023-02-28T11:24:59;2.47;;;1.40;;
14139;SDS011;7150;53.514;9.988;2023-02-28T11:29:56;3.60;;;2.00;;
14139;SDS011;7150;53.514;9.988;2023-02-28T11:32:23;3.30;;;1.50;;
14139;SDS011;7150;53.514;9.988;2023-02-28T11:35:01;2.47;;;1.60;;
14139;SDS011;7150;53.514;9.988;2023-02-28T11:37:29;2.23;;;1.40;;
14139;SDS011;7150;53.514;9.988;2023-02-28T11:39:57;2.77;;;1.43;;
14139;SDS011;7150;53.514;9.988;2023-02-28T11:42:44;4.10;;;1.40;;
14139;SDS011;7150;53.514;9.988;2023-02-28T11:48:14;1.97;;;1.40;;
14139;SDS011;7150;53.514;9.988;2023-02-28T11:53:43;2.10;;;1.70;;
14139;SDS011;7150;53.514;9.988;2023-02-28T11:56:37;4.67;;;1.70;;
14139;SDS011;7150;53.514;9.988;2023-02-28T11:59:10;3.70;;;1.50;;
14139;SDS011;7150;53.514;9.988;2023-02-28T12:07:45;1.50;;;1.20;;
14139;SDS011;7150;53.514;9.988;2023-02-28T12:10:22;3.03;;;1.30;;
14139;SDS011;7150;53.514;9.988;2023-02-28T12:15:24;1.23;;;0.90;;
14139;SDS011;7150;53.514;9.988;2023-02-28T12:20:37;2.97;;;1.10;;
14139;SDS011;7150;53.514;9.988;2023-02-28T12:23:26;4.57;;;1.67;;
14139;SDS011;7150;53.514;9.988;2023-02-28T12:26:25;2.30;;;1.17;;
14139;SDS011;7150;53.514;9.988;2023-02-28T12:28:54;2.53;;;1.40;;
14139;SDS011;7150;53.514;9.988;2023-02-28T12:31:29;2.37;;;1.20;;
14139;SDS011;7150;53.514;9.988;2023-02-28T12:34:01;3.07;;;1.10;;
14139;SDS011;7150;53.514;9.988;2023-02-28T12:36:31;3.67;;;1.07;;
14139;SDS011;7150;53.514;9.988;2023-02-28T12:39:03;3.70;;;1.10;;
14139;SDS011;7150;53.514;9.988;2023-02-28T12:41:53;2.30;;;1.23;;
14139;SDS011;7150;53.514;9.988;2023-02-28T12:47:04;1.20;;;1.00;;
14139;SDS011;7150;53.514;9.988;2023-02-28T12:49:39;3.27;;;1.00;;
14139;SDS011;7150;53.514;9.988;2023-02-28T12:52:11;1.57;;;1.00;;
14139;SDS011;7150;53.514;9.988;2023-02-28T12:54:47;1.77;;;1.37;;
14139;SDS011;7150;53.514;9.988;2023-02-28T13:00:16;5.63;;;1.53;;
14139;SDS011;7150;53.514;9.988;2023-02-28T13:08:20;1.83;;;1.00;;
14139;SDS011;7150;53.514;9.988;2023-02-28T13:10:55;3.60;;;1.47;;
14139;SDS011;7150;53.514;9.988;2023-02-28T13:13:22;1.70;;;1.03;;
14139;SDS011;7150;53.514;9.988;2023-02-28T13:15:57;1.77;;;0.93;;
14139;SDS011;7150;53.514;9.988;2023-02-28T13:18:38;4.03;;;1.07;;
14139;SDS011;7150;53.514;9.988;2023-02-28T13:21:08;4.13;;;1.20;;
14139;SDS011;7150;53.514;9.988;2023-02-28T13:28:57;1.50;;;1.20;;
14139;SDS011;7150;53.514;9.988;2023-02-28T13:31:25;4.20;;;1.30;;
14139;SDS011;7150;53.514;9.988;2023-02-28T13:36:32;2.07;;;1.20;;
14139;SDS011;7150;53.514;9.988;2023-02-28T13:47:16;2.90;;;1.80;;
14139;SDS011;7150;53.514;9.988;2023-02-28T13:49:26;3.97;;;1.30;;
14139;SDS011;7150;53.514;9.988;2023-02-28T14:03:17;3.27;;;1.37;;
14139;SDS011;7150;53.514;9.988;2023-02-28T14:05:48;2.30;;;1.27;;
14139;SDS011;7150;53.514;9.988;2023-02-28T14:08:35;1.67;;;1.30;;
14139;SDS011;7150;53.514;9.988;2023-02-28T14:11:05;2.17;;;1.40;;
14139;SDS011;7150;53.514;9.988;2023-02-28T14:16:22;3.67;;;1.83;;
14139;SDS011;7150;53.514;9.988;2023-02-28T14:18:55;2.90;;;1.33;;
14139;SDS011;7150;53.514;9.988;2023-02-28T14:21:30;4.17;;;1.70;;
14139;SDS011;7150;53.514;9.988;2023-02-28T14:29:52;3.00;;;1.57;;
14139;SDS011;7150;53.514;9.988;2023-02-28T14:35:50;2.43;;;1.37;;
14139;SDS011;7150;53.514;9.988;2023-02-28T14:38:28;3.30;;;1.53;;
14139;SDS011;7150;53.514;9.988;2023-02-28T14:40:57;3.57;;;1.50;;
14139;SDS011;7150;53.514;9.988;2023-02-28T14:43:25;2.40;;;1.23;;
14139;SDS011;7150;53.514;9.988;2023-02-28T14:45:55;2.70;;;1.30;;
14139;SDS011;7150;53.514;9.988;2023-02-28T14:48:24;3.57;;;1.60;;
14139;SDS011;7150;53.514;9.988;2023-02-28T14:50:51;2.13;;;1.40;;
14139;SDS011;7150;53.514;9.988;2023-02-28T14:53:20;2.80;;;1.20;;
14139;SDS011;7150;53.514;9.988;2023-02-28T14:55:48;2.10;;;1.20;;
14139;SDS011;7150;53.514;9.988;2023-02-28T14:58:31;3.00;;;1.20;;
14139;SDS011;7150;53.514;9.988;2023-02-28T15:00:59;3.53;;;1.30;;
14139;SDS011;7150;53.514;9.988;2023-02-28T15:03:34;3.00;;;1.50;;
14139;SDS011;7150;53.514;9.988;2023-02-28T15:06:02;2.37;;;1.67;;
14139;SDS011;7150;53.514;9.988;2023-02-28T15:08:37;3.00;;;1.37;;
14139;SDS011;7150;53.514;9.988;2023-02-28T15:11:18;1.70;;;1.50;;
14139;SDS011;7150;53.514;9.988;2023-02-28T15:13:50;3.67;;;1.43;;
14139;SDS011;7150;53.514;9.988;2023-02-28T15:16:37;2.97;;;1.73;;
14139;SDS011;7150;53.514;9.988;2023-02-28T15:19:20;3.07;;;1.53;;
14139;SDS011;7150;53.514;9.988;2023-02-28T15:21:51;3.03;;;1.30;;
14139;SDS011;7150;53.514;9.988;2023-02-28T15:24:22;2.43;;;1.33;;
14139;SDS011;7150;53.514;9.988;2023-02-28T15:26:57;2.27;;;1.40;;
14139;SDS011;7150;53.514;9.988;2023-02-28T15:29:25;4.70;;;1.63;;
14139;SDS011;7150;53.514;9.988;2023-02-28T15:34:42;2.63;;;1.40;;
14139;SDS011;7150;53.514;9.988;2023-02-28T15:37:24;1.57;;;1.20;;
14139;SDS011;7150;53.514;9.988;2023-02-28T15:40:04;1.77;;;1.20;;
14139;SDS011;7150;53.514;9.988;2023-02-28T15:42:30;1.67;;;1.03;;
14139;SDS011;7150;53.514;9.988;2023-02-28T15:44:56;1.07;;;0.97;;
14139;SDS011;7150;53.514;9.988;2023-02-28T15:47:23;2.53;;;0.90;;
14139;SDS011;7150;53.514;9.988;2023-02-28T15:49:52;1.63;;;1.13;;
14139;SDS011;7150;53.514;9.988;2023-02-28T15:52:21;8.43;;;1.67;;
14139;SDS011;7150;53.514;9.988;2023-02-28T15:54:59;1.67;;;1.20;;
14139;SDS011;7150;53.514;9.988;2023-02-28T15:57:50;2.07;;;1.20;;
14139;SDS011;7150;53.514;9.988;2023-02-28T16:00:22;2.43;;;1.40;;
14139;SDS011;7150;53.514;9.988;2023-02-28T16:02:49;2.33;;;1.40;;
14139;SDS011;7150;53.514;9.988;2023-02-28T16:07:53;2.00;;;1.20;;
14139;SDS011;7150;53.514;9.988;2023-02-28T16:10:23;2.63;;;1.30;;
14139;SDS011;7150;53.514;9.988;2023-02-28T16:12:52;3.03;;;1.53;;
14139;SDS011;7150;53.514;9.988;2023-02-28T16:15:24;3.80;;;1.40;;
14139;SDS011;7150;53.514;9.988;2023-02-28T16:17:52;2.83;;;1.60;;
14139;SDS011;7150;53.514;9.988;2023-02-28T16:20:20;3.80;;;1.43;;
14139;SDS011;7150;53.514;9.988;2023-02-28T16:22:49;2.47;;;1.50;;
14139;SDS011;7150;53.514;9.988;2023-02-28T16:25:16;2.00;;;1.30;;
14139;SDS011;7150;53.514;9.988;2023-02-28T16:27:45;2.10;;;1.30;;
14139;SDS011;7150;53.514;9.988;2023-02-28T16:30:32;2.30;;;1.20;;
14139;SDS011;7150;53.514;9.988;2023-02-28T16:32:57;1.53;;;1.20;;
14139;SDS011;7150;53.514;9.988;2023-02-28T16:35:23;3.37;;;1.47;;
14139;SDS011;7150;53.514;9.988;2023-02-28T16:37:53;1.67;;;1.20;;
14139;SDS011;7150;53.514;9.988;2023-02-28T16:40:23;1.63;;;1.10;;
14139;SDS011;7150;53.514;9.988;2023-02-28T16:42:51;1.70;;;1.13;;
14139;SDS011;7150;53.514;9.988;2023-02-28T16:45:22;5.37;;;1.33;;
14139;SDS011;7150;53.514;9.988;2023-02-28T16:47:49;3.53;;;1.33;;
14139;SDS011;7150;53.514;9.988;2023-02-28T16:50:17;1.80;;;1.10;;
14139;SDS011;7150;53.514;9.988;2023-02-28T16:52:48;1.30;;;1.03;;
14139;SDS011;7150;53.514;9.988;2023-02-28T16:55:14;2.13;;;1.30;;
14139;SDS011;7150;53.514;9.988;2023-02-28T16:57:40;2.47;;;1.60;;
14139;SDS011;7150;53.514;9.988;2023-02-28T17:00:08;2.47;;;1.37;;
14139;SDS011;7150;53.514;9.988;2023-02-28T17:02:37;3.00;;;1.30;;
14139;SDS011;7150;53.514;9.988;2023-02-28T17:05:03;2.07;;;1.27;;
14139;SDS011;7150;53.514;9.988;2023-02-28T17:07:29;4.00;;;1.43;;
14139;SDS011;7150;53.514;9.988;2023-02-28T17:09:55;1.63;;;1.50;;
14139;SDS011;7150;53.514;9.988;2023-02-28T17:12:21;2.53;;;1.40;;
14139;SDS011;7150;53.514;9.988;2023-02-28T17:14:46;1.27;;;1.10;;
14139;SDS011;7150;53.514;9.988;2023-02-28T17:17:18;2.63;;;1.33;;